YBCS

Cairns International Airport

Cairns, Australia
TAF YBCS 201722Z 2018/2118 15010KT 9999 SCT025 FM202300 13014KT 9999 SCT030 FM210900 15010KT 9999 SCT025
Issued Valid From Valid To
Apr-20 @ 17:22 UTC
(an hour ago)
Apr-20 @ 18:00 UTC
(40 minutes ago)
Apr-21 @ 18:00 UTC
(in 23 hours)
Apr-20 @ 18:00 to Apr-20 @ 23:00
TAF YBCS 201722Z 2018/2118 15010KT 9999 SCT025
Wind Visibility Clouds
150° at 10 knots 10,000+ meters
  • Scattered at 2,500' AGL
From Apr-20 @ 23:00 to Apr-21 @ 09:00
FM202300 13014KT 9999 SCT030
Wind Visibility Clouds
130° at 14 knots 10,000+ meters
  • Scattered at 3,000' AGL
From Apr-21 @ 09:00 to Apr-21 @ 18:00
FM210900 15010KT 9999 SCT025
Wind Visibility Clouds
150° at 10 knots 10,000+ meters
  • Scattered at 2,500' AGL
TAF YBCS 201722Z 2018/2118 15010KT 9999 SCT025 FM202300 13014KT 9999 SCT030 FM210900 15010KT 9999 SCT025
Issued Apr-20 @ 17:22 UTC
(an hour ago)
Valid From Apr-20 @ 18:00 UTC
(40 minutes ago)
Valid To Apr-21 @ 18:00 UTC
(in 23 hours)
Apr-20 @ 18:00 - Apr-20 @ 23:00
Wind Visibility
150° at 10 knots 10,000+ meters
Clouds
  • Scattered at 2,500' AGL
From Apr-20 @ 23:00 - Apr-21 @ 09:00
Wind Visibility
130° at 14 knots 10,000+ meters
Clouds
  • Scattered at 3,000' AGL
From Apr-21 @ 09:00 - Apr-21 @ 18:00
Wind Visibility
150° at 10 knots 10,000+ meters
Clouds
  • Scattered at 2,500' AGL